Aviation Digital Data Service (ADDS)

Output produced by METARs form (1935 UTC 19 July 2018)
found at http://www.aviationweather.gov/adds/metars/
 
METAR text: KIDI 191935Z AUTO 24004G10KT 10SM CLR 27/14 A3013 RMK A01
Conditions at: KIDI (INDIANA/STEWART , PA, US) observed 1935 UTC 19 July 2018
Temperature: 27.0°C (81°F)
Dewpoint: 14.0°C (57°F) [RH = 45%]
Pressure (altimeter): 30.13 inches Hg (1020.4 mb)
Winds: from the WSW (240 degrees) at 5 MPH (4 knots; 2.1 m/s)
gusting to 12 MPH (10 knots; 5.2 m/s)
Visibility: 10 or more miles (16+ km)
Ceiling: at least 12,000 feet AGL
Clouds: sky clear below 12,000 feet AGL
Weather: automated observation with no human augmentation;
there may or may not be significant weather present at this time

METAR text: KIDI 191915Z AUTO 22005KT 10SM CLR 27/14 A3013 RMK A01
Conditions at: KIDI (INDIANA/STEWART , PA, US) observed 1915 UTC 19 July 2018
Temperature: 27.0°C (81°F)
Dewpoint: 14.0°C (57°F) [RH = 45%]
Pressure (altimeter): 30.13 inches Hg (1020.4 mb)
Winds: from the SW (220 degrees) at 6 MPH (5 knots; 2.6 m/s)
Visibility: 10 or more miles (16+ km)
Ceiling: at least 12,000 feet AGL
Clouds: sky clear below 12,000 feet AGL
Weather: automated observation with no human augmentation;
there may or may not be significant weather present at this time

METAR text: KIDI 191855Z AUTO 00000KT 10SM CLR 26/13 A3014 RMK A01
Conditions at: KIDI (INDIANA/STEWART , PA, US) observed 1855 UTC 19 July 2018
Temperature: 26.0°C (79°F)
Dewpoint: 13.0°C (55°F) [RH = 45%]
Pressure (altimeter): 30.14 inches Hg (1020.7 mb)
Winds: calm
Visibility: 10 or more miles (16+ km)
Ceiling: at least 12,000 feet AGL
Clouds: sky clear below 12,000 feet AGL
Weather: automated observation with no human augmentation;
there may or may not be significant weather present at this time

METAR text: KIDI 191835Z AUTO VRB03KT 6SM HZ CLR 26/14 A3014 RMK A01
Conditions at: KIDI (INDIANA/STEWART , PA, US) observed 1835 UTC 19 July 2018
Temperature: 26.0°C (79°F)
Dewpoint: 14.0°C (57°F) [RH = 48%]
Pressure (altimeter): 30.14 inches Hg (1020.7 mb)
Winds: variable direction winds at 3 MPH (3 knots; 1.6 m/s)
Visibility: 6 miles (10 km)
Ceiling: at least 12,000 feet AGL
Clouds: sky clear below 12,000 feet AGL
Weather: HZ  (haze)

METAR text: KIDI 191815Z AUTO VRB03KT 10SM CLR 26/15 A3014 RMK A01
Conditions at: KIDI (INDIANA/STEWART , PA, US) observed 1815 UTC 19 July 2018
Temperature: 26.0°C (79°F)
Dewpoint: 15.0°C (59°F) [RH = 51%]
Pressure (altimeter): 30.14 inches Hg (1020.7 mb)
Winds: variable direction winds at 3 MPH (3 knots; 1.6 m/s)
Visibility: 10 or more miles (16+ km)
Ceiling: at least 12,000 feet AGL
Clouds: sky clear below 12,000 feet AGL
Weather: automated observation with no human augmentation;
there may or may not be significant weather present at this time

METAR text: KIDI 191755Z AUTO 29005KT 10SM CLR 26/14 A3015 RMK A01
Conditions at: KIDI (INDIANA/STEWART , PA, US) observed 1755 UTC 19 July 2018
Temperature: 26.0°C (79°F)
Dewpoint: 14.0°C (57°F) [RH = 48%]
Pressure (altimeter): 30.15 inches Hg (1021.1 mb)
Winds: from the WNW (290 degrees) at 6 MPH (5 knots; 2.6 m/s)
Visibility: 10 or more miles (16+ km)
Ceiling: at least 12,000 feet AGL
Clouds: sky clear below 12,000 feet AGL
Weather: automated observation with no human augmentation;
there may or may not be significant weather present at this time

METAR text: KIDI 191735Z AUTO VRB03G10KT 10SM CLR 25/13 A3015 RMK A01
Conditions at: KIDI (INDIANA/STEWART , PA, US) observed 1735 UTC 19 July 2018
Temperature: 25.0°C (77°F)
Dewpoint: 13.0°C (55°F) [RH = 47%]
Pressure (altimeter): 30.15 inches Hg (1021.1 mb)
Winds: variable direction winds at 3 MPH (3 knots; 1.6 m/s)
gusting to 12 MPH (10 knots; 5.2 m/s)
Visibility: 10 or more miles (16+ km)
Ceiling: at least 12,000 feet AGL
Clouds: sky clear below 12,000 feet AGL
Weather: automated observation with no human augmentation;
there may or may not be significant weather present at this time

METAR text: KIDI 191715Z AUTO 00000KT 10SM CLR 25/13 A3016 RMK A01
Conditions at: KIDI (INDIANA/STEWART , PA, US) observed 1715 UTC 19 July 2018
Temperature: 25.0°C (77°F)
Dewpoint: 13.0°C (55°F) [RH = 47%]
Pressure (altimeter): 30.16 inches Hg (1021.4 mb)
Winds: calm
Visibility: 10 or more miles (16+ km)
Ceiling: at least 12,000 feet AGL
Clouds: sky clear below 12,000 feet AGL
Weather: automated observation with no human augmentation;
there may or may not be significant weather present at this time

METAR text: KIDI 191655Z AUTO VRB04KT 10SM CLR 25/14 A3016 RMK A01
Conditions at: KIDI (INDIANA/STEWART , PA, US) observed 1655 UTC 19 July 2018
Temperature: 25.0°C (77°F)
Dewpoint: 14.0°C (57°F) [RH = 50%]
Pressure (altimeter): 30.16 inches Hg (1021.4 mb)
Winds: variable direction winds at 5 MPH (4 knots; 2.1 m/s)
Visibility: 10 or more miles (16+ km)
Ceiling: at least 12,000 feet AGL
Clouds: sky clear below 12,000 feet AGL
Weather: automated observation with no human augmentation;
there may or may not be significant weather present at this time

METAR text: KIDI 191635Z AUTO VRB05KT 9SM CLR 25/13 A3017 RMK A01
Conditions at: KIDI (INDIANA/STEWART , PA, US) observed 1635 UTC 19 July 2018
Temperature: 25.0°C (77°F)
Dewpoint: 13.0°C (55°F) [RH = 47%]
Pressure (altimeter): 30.17 inches Hg (1021.8 mb)
Winds: variable direction winds at 6 MPH (5 knots; 2.6 m/s)
Visibility: 9 miles (14 km)
Ceiling: at least 12,000 feet AGL
Clouds: sky clear below 12,000 feet AGL
Weather: automated observation with no human augmentation;
there may or may not be significant weather present at this time

METAR text: KIDI 191615Z AUTO 00000KT 10SM FEW049 25/14 A3017 RMK A01
Conditions at: KIDI (INDIANA/STEWART , PA, US) observed 1615 UTC 19 July 2018
Temperature: 25.0°C (77°F)
Dewpoint: 14.0°C (57°F) [RH = 50%]
Pressure (altimeter): 30.17 inches Hg (1021.8 mb)
Winds: calm
Visibility: 10 or more miles (16+ km)
Ceiling: at least 12,000 feet AGL
Clouds: few clouds at 4900 feet AGL
Weather: automated observation with no human augmentation;
there may or may not be significant weather present at this time

METAR text: KIDI 191555Z AUTO 26004KT 10SM BKN048 24/14 A3017 RMK A01
Conditions at: KIDI (INDIANA/STEWART , PA, US) observed 1555 UTC 19 July 2018
Temperature: 24.0°C (75°F)
Dewpoint: 14.0°C (57°F) [RH = 54%]
Pressure (altimeter): 30.17 inches Hg (1021.8 mb)
Winds: from the W (260 degrees) at 5 MPH (4 knots; 2.1 m/s)
Visibility: 10 or more miles (16+ km)
Ceiling: 4800 feet AGL
Clouds: broken clouds at 4800 feet AGL
Weather: automated observation with no human augmentation;
there may or may not be significant weather present at this time

METAR text: KIDI 191535Z AUTO 19007KT 10SM SCT048 24/14 A3018 RMK A01
Conditions at: KIDI (INDIANA/STEWART , PA, US) observed 1535 UTC 19 July 2018
Temperature: 24.0°C (75°F)
Dewpoint: 14.0°C (57°F) [RH = 54%]
Pressure (altimeter): 30.18 inches Hg (1022.1 mb)
Winds: from the S (190 degrees) at 8 MPH (7 knots; 3.6 m/s)
Visibility: 10 or more miles (16+ km)
Ceiling: at least 12,000 feet AGL
Clouds: scattered clouds at 4800 feet AGL
Weather: automated observation with no human augmentation;
there may or may not be significant weather present at this time

METAR text: KIDI 191515Z AUTO VRB03KT 10SM CLR 24/13 A3018 RMK A01
Conditions at: KIDI (INDIANA/STEWART , PA, US) observed 1515 UTC 19 July 2018
Temperature: 24.0°C (75°F)
Dewpoint: 13.0°C (55°F) [RH = 50%]
Pressure (altimeter): 30.18 inches Hg (1022.1 mb)
Winds: variable direction winds at 3 MPH (3 knots; 1.6 m/s)
Visibility: 10 or more miles (16+ km)
Ceiling: at least 12,000 feet AGL
Clouds: sky clear below 12,000 feet AGL
Weather: automated observation with no human augmentation;
there may or may not be significant weather present at this time

METAR text: KIDI 191455Z AUTO 00000KT 10SM CLR 23/15 A3018 RMK A01
Conditions at: KIDI (INDIANA/STEWART , PA, US) observed 1455 UTC 19 July 2018
Temperature: 23.0°C (73°F)
Dewpoint: 15.0°C (59°F) [RH = 61%]
Pressure (altimeter): 30.18 inches Hg (1022.1 mb)
Winds: calm
Visibility: 10 or more miles (16+ km)
Ceiling: at least 12,000 feet AGL
Clouds: sky clear below 12,000 feet AGL
Weather: automated observation with no human augmentation;
there may or may not be significant weather present at this time

METAR text: KIDI 191435Z AUTO 00000KT 10SM CLR 23/15 A3018 RMK A01
Conditions at: KIDI (INDIANA/STEWART , PA, US) observed 1435 UTC 19 July 2018
Temperature: 23.0°C (73°F)
Dewpoint: 15.0°C (59°F) [RH = 61%]
Pressure (altimeter): 30.18 inches Hg (1022.1 mb)
Winds: calm
Visibility: 10 or more miles (16+ km)
Ceiling: at least 12,000 feet AGL
Clouds: sky clear below 12,000 feet AGL
Weather: automated observation with no human augmentation;
there may or may not be significant weather present at this time

METAR text: KIDI 191415Z AUTO 15004KT 10SM CLR 22/16 A3018 RMK A01
Conditions at: KIDI (INDIANA/STEWART , PA, US) observed 1415 UTC 19 July 2018
Temperature: 22.0°C (72°F)
Dewpoint: 16.0°C (61°F) [RH = 69%]
Pressure (altimeter): 30.18 inches Hg (1022.1 mb)
Winds: from the SSE (150 degrees) at 5 MPH (4 knots; 2.1 m/s)
Visibility: 10 or more miles (16+ km)
Ceiling: at least 12,000 feet AGL
Clouds: sky clear below 12,000 feet AGL
Weather: automated observation with no human augmentation;
there may or may not be significant weather present at this time

METAR text: KIDI 191355Z AUTO 20005KT 10SM CLR 22/16 A3017 RMK A01
Conditions at: KIDI (INDIANA/STEWART , PA, US) observed 1355 UTC 19 July 2018
Temperature: 22.0°C (72°F)
Dewpoint: 16.0°C (61°F) [RH = 69%]
Pressure (altimeter): 30.17 inches Hg (1021.8 mb)
Winds: from the SSW (200 degrees) at 6 MPH (5 knots; 2.6 m/s)
Visibility: 10 or more miles (16+ km)
Ceiling: at least 12,000 feet AGL
Clouds: sky clear below 12,000 feet AGL
Weather: automated observation with no human augmentation;
there may or may not be significant weather present at this time

METAR text: KIDI 191335Z AUTO 14005KT 10SM CLR 21/15 A3017 RMK A01
Conditions at: KIDI (INDIANA/STEWART , PA, US) observed 1335 UTC 19 July 2018
Temperature: 21.0°C (70°F)
Dewpoint: 15.0°C (59°F) [RH = 69%]
Pressure (altimeter): 30.17 inches Hg (1021.8 mb)
Winds: from the SE (140 degrees) at 6 MPH (5 knots; 2.6 m/s)
Visibility: 10 or more miles (16+ km)
Ceiling: at least 12,000 feet AGL
Clouds: sky clear below 12,000 feet AGL
Weather: automated observation with no human augmentation;
there may or may not be significant weather present at this time

METAR text: KIDI 191315Z AUTO 11004KT 10SM CLR 20/15 A3017 RMK A01
Conditions at: KIDI (INDIANA/STEWART , PA, US) observed 1315 UTC 19 July 2018
Temperature: 20.0°C (68°F)
Dewpoint: 15.0°C (59°F) [RH = 73%]
Pressure (altimeter): 30.17 inches Hg (1021.8 mb)
Winds: from the ESE (110 degrees) at 5 MPH (4 knots; 2.1 m/s)
Visibility: 10 or more miles (16+ km)
Ceiling: at least 12,000 feet AGL
Clouds: sky clear below 12,000 feet AGL
Weather: automated observation with no human augmentation;
there may or may not be significant weather present at this time

METAR text: KIDI 191255Z AUTO 00000KT 10SM CLR 19/15 A3017 RMK A01
Conditions at: KIDI (INDIANA/STEWART , PA, US) observed 1255 UTC 19 July 2018
Temperature: 19.0°C (66°F)
Dewpoint: 15.0°C (59°F) [RH = 78%]
Pressure (altimeter): 30.17 inches Hg (1021.8 mb)
Winds: calm
Visibility: 10 or more miles (16+ km)
Ceiling: at least 12,000 feet AGL
Clouds: sky clear below 12,000 feet AGL
Weather: automated observation with no human augmentation;
there may or may not be significant weather present at this time

METAR text: KIDI 191235Z AUTO 00000KT 10SM CLR 18/15 A3016 RMK A01
Conditions at: KIDI (INDIANA/STEWART , PA, US) observed 1235 UTC 19 July 2018
Temperature: 18.0°C (64°F)
Dewpoint: 15.0°C (59°F) [RH = 83%]
Pressure (altimeter): 30.16 inches Hg (1021.4 mb)
Winds: calm
Visibility: 10 or more miles (16+ km)
Ceiling: at least 12,000 feet AGL
Clouds: sky clear below 12,000 feet AGL
Weather: automated observation with no human augmentation;
there may or may not be significant weather present at this time

METAR text: KIDI 191215Z AUTO 08003KT 10SM CLR 17/14 A3016 RMK A01
Conditions at: KIDI (INDIANA/STEWART , PA, US) observed 1215 UTC 19 July 2018
Temperature: 17.0°C (63°F)
Dewpoint: 14.0°C (57°F) [RH = 82%]
Pressure (altimeter): 30.16 inches Hg (1021.4 mb)
Winds: from the E (80 degrees) at 3 MPH (3 knots; 1.6 m/s)
Visibility: 10 or more miles (16+ km)
Ceiling: at least 12,000 feet AGL
Clouds: sky clear below 12,000 feet AGL
Weather: automated observation with no human augmentation;
there may or may not be significant weather present at this time

METAR text: KIDI 191155Z AUTO 07004KT 10SM CLR 17/14 A3016 RMK A01
Conditions at: KIDI (INDIANA/STEWART , PA, US) observed 1155 UTC 19 July 2018
Temperature: 17.0°C (63°F)
Dewpoint: 14.0°C (57°F) [RH = 82%]
Pressure (altimeter): 30.16 inches Hg (1021.4 mb)
Winds: from the ENE (70 degrees) at 5 MPH (4 knots; 2.1 m/s)
Visibility: 10 or more miles (16+ km)
Ceiling: at least 12,000 feet AGL
Clouds: sky clear below 12,000 feet AGL
Weather: automated observation with no human augmentation;
there may or may not be significant weather present at this time

METAR text: KIDI 191135Z AUTO 07004KT 10SM CLR 16/14 A3016 RMK A01
Conditions at: KIDI (INDIANA/STEWART , PA, US) observed 1135 UTC 19 July 2018
Temperature: 16.0°C (61°F)
Dewpoint: 14.0°C (57°F) [RH = 88%]
Pressure (altimeter): 30.16 inches Hg (1021.4 mb)
Winds: from the ENE (70 degrees) at 5 MPH (4 knots; 2.1 m/s)
Visibility: 10 or more miles (16+ km)
Ceiling: at least 12,000 feet AGL
Clouds: sky clear below 12,000 feet AGL
Weather: automated observation with no human augmentation;
there may or may not be significant weather present at this time

METAR text: KIDI 191115Z AUTO 08003KT 10SM CLR 15/14 A3016 RMK A01
Conditions at: KIDI (INDIANA/STEWART , PA, US) observed 1115 UTC 19 July 2018
Temperature: 15.0°C (59°F)
Dewpoint: 14.0°C (57°F) [RH = 94%]
Pressure (altimeter): 30.16 inches Hg (1021.4 mb)
Winds: from the E (80 degrees) at 3 MPH (3 knots; 1.6 m/s)
Visibility: 10 or more miles (16+ km)
Ceiling: at least 12,000 feet AGL
Clouds: sky clear below 12,000 feet AGL
Weather: automated observation with no human augmentation;
there may or may not be significant weather present at this time

METAR text: KIDI 191055Z AUTO 00000KT 10SM CLR 15/14 A3016 RMK A01
Conditions at: KIDI (INDIANA/STEWART , PA, US) observed 1055 UTC 19 July 2018
Temperature: 15.0°C (59°F)
Dewpoint: 14.0°C (57°F) [RH = 94%]
Pressure (altimeter): 30.16 inches Hg (1021.4 mb)
Winds: calm
Visibility: 10 or more miles (16+ km)
Ceiling: at least 12,000 feet AGL
Clouds: sky clear below 12,000 feet AGL
Weather: automated observation with no human augmentation;
there may or may not be significant weather present at this time

METAR text: KIDI 191035Z AUTO 09004KT 10SM FEW055 15/14 A3016 RMK A01
Conditions at: KIDI (INDIANA/STEWART , PA, US) observed 1035 UTC 19 July 2018
Temperature: 15.0°C (59°F)
Dewpoint: 14.0°C (57°F) [RH = 94%]
Pressure (altimeter): 30.16 inches Hg (1021.4 mb)
Winds: from the E (90 degrees) at 5 MPH (4 knots; 2.1 m/s)
Visibility: 10 or more miles (16+ km)
Ceiling: at least 12,000 feet AGL
Clouds: few clouds at 5500 feet AGL
Weather: automated observation with no human augmentation;
there may or may not be significant weather present at this time

METAR text: KIDI 191015Z AUTO 00000KT 10SM BKN055 14/14 A3016 RMK A01
Conditions at: KIDI (INDIANA/STEWART , PA, US) observed 1015 UTC 19 July 2018
Temperature: 14.0°C (57°F)
Dewpoint: 14.0°C (57°F) [RH = 100%]
Pressure (altimeter): 30.16 inches Hg (1021.4 mb)
Winds: calm
Visibility: 10 or more miles (16+ km)
Ceiling: 5500 feet AGL
Clouds: broken clouds at 5500 feet AGL
Weather: automated observation with no human augmentation;
there may or may not be significant weather present at this time

METAR text: KIDI 190955Z AUTO 00000KT 10SM OVC055 14/14 A3016 RMK A01
Conditions at: KIDI (INDIANA/STEWART , PA, US) observed 0955 UTC 19 July 2018
Temperature: 14.0°C (57°F)
Dewpoint: 14.0°C (57°F) [RH = 100%]
Pressure (altimeter): 30.16 inches Hg (1021.4 mb)
Winds: calm
Visibility: 10 or more miles (16+ km)
Ceiling: 5500 feet AGL
Clouds: overcast cloud deck at 5500 feet AGL
Weather: automated observation with no human augmentation;
there may or may not be significant weather present at this time

METAR text: KIDI 190935Z AUTO 00000KT 10SM OVC055 14/14 A3016 RMK A01
Conditions at: KIDI (INDIANA/STEWART , PA, US) observed 0935 UTC 19 July 2018
Temperature: 14.0°C (57°F)
Dewpoint: 14.0°C (57°F) [RH = 100%]
Pressure (altimeter): 30.16 inches Hg (1021.4 mb)
Winds: calm
Visibility: 10 or more miles (16+ km)
Ceiling: 5500 feet AGL
Clouds: overcast cloud deck at 5500 feet AGL
Weather: automated observation with no human augmentation;
there may or may not be significant weather present at this time

METAR text: KIDI 190915Z AUTO 00000KT 10SM OVC055 14/14 A3015 RMK A01
Conditions at: KIDI (INDIANA/STEWART , PA, US) observed 0915 UTC 19 July 2018
Temperature: 14.0°C (57°F)
Dewpoint: 14.0°C (57°F) [RH = 100%]
Pressure (altimeter): 30.15 inches Hg (1021.1 mb)
Winds: calm
Visibility: 10 or more miles (16+ km)
Ceiling: 5500 feet AGL
Clouds: overcast cloud deck at 5500 feet AGL
Weather: automated observation with no human augmentation;
there may or may not be significant weather present at this time

METAR text: KIDI 190855Z AUTO 00000KT 10SM BKN055 14/14 A3015 RMK A01
Conditions at: KIDI (INDIANA/STEWART , PA, US) observed 0855 UTC 19 July 2018
Temperature: 14.0°C (57°F)
Dewpoint: 14.0°C (57°F) [RH = 100%]
Pressure (altimeter): 30.15 inches Hg (1021.1 mb)
Winds: calm
Visibility: 10 or more miles (16+ km)
Ceiling: 5500 feet AGL
Clouds: broken clouds at 5500 feet AGL
Weather: automated observation with no human augmentation;
there may or may not be significant weather present at this time

METAR text: KIDI 190835Z AUTO 00000KT 10SM BKN055 15/14 A3014 RMK A01
Conditions at: KIDI (INDIANA/STEWART , PA, US) observed 0835 UTC 19 July 2018
Temperature: 15.0°C (59°F)
Dewpoint: 14.0°C (57°F) [RH = 94%]
Pressure (altimeter): 30.14 inches Hg (1020.7 mb)
Winds: calm
Visibility: 10 or more miles (16+ km)
Ceiling: 5500 feet AGL
Clouds: broken clouds at 5500 feet AGL
Weather: automated observation with no human augmentation;
there may or may not be significant weather present at this time

METAR text: KIDI 190815Z AUTO 00000KT 10SM OVC050 15/14 A3014 RMK A01
Conditions at: KIDI (INDIANA/STEWART , PA, US) observed 0815 UTC 19 July 2018
Temperature: 15.0°C (59°F)
Dewpoint: 14.0°C (57°F) [RH = 94%]
Pressure (altimeter): 30.14 inches Hg (1020.7 mb)
Winds: calm
Visibility: 10 or more miles (16+ km)
Ceiling: 5000 feet AGL
Clouds: overcast cloud deck at 5000 feet AGL
Weather: automated observation with no human augmentation;
there may or may not be significant weather present at this time

METAR text: KIDI 190755Z AUTO 00000KT 10SM BKN050 15/14 A3013 RMK A01
Conditions at: KIDI (INDIANA/STEWART , PA, US) observed 0755 UTC 19 July 2018
Temperature: 15.0°C (59°F)
Dewpoint: 14.0°C (57°F) [RH = 94%]
Pressure (altimeter): 30.13 inches Hg (1020.4 mb)
Winds: calm
Visibility: 10 or more miles (16+ km)
Ceiling: 5000 feet AGL
Clouds: broken clouds at 5000 feet AGL
Weather: automated observation with no human augmentation;
there may or may not be significant weather present at this time

METAR text: KIDI 190735Z AUTO 00000KT 10SM BKN055 15/14 A3013 RMK A01
Conditions at: KIDI (INDIANA/STEWART , PA, US) observed 0735 UTC 19 July 2018
Temperature: 15.0°C (59°F)
Dewpoint: 14.0°C (57°F) [RH = 94%]
Pressure (altimeter): 30.13 inches Hg (1020.4 mb)
Winds: calm
Visibility: 10 or more miles (16+ km)
Ceiling: 5500 feet AGL
Clouds: broken clouds at 5500 feet AGL
Weather: automated observation with no human augmentation;
there may or may not be significant weather present at this time

METAR text: KIDI 190715Z AUTO 00000KT 10SM CLR 15/14 A3013 RMK A01
Conditions at: KIDI (INDIANA/STEWART , PA, US) observed 0715 UTC 19 July 2018
Temperature: 15.0°C (59°F)
Dewpoint: 14.0°C (57°F) [RH = 94%]
Pressure (altimeter): 30.13 inches Hg (1020.4 mb)
Winds: calm
Visibility: 10 or more miles (16+ km)
Ceiling: at least 12,000 feet AGL
Clouds: sky clear below 12,000 feet AGL
Weather: automated observation with no human augmentation;
there may or may not be significant weather present at this time

METAR text: KIDI 190655Z AUTO 00000KT 10SM SCT050 16/14 A3013 RMK A01
Conditions at: KIDI (INDIANA/STEWART , PA, US) observed 0655 UTC 19 July 2018
Temperature: 16.0°C (61°F)
Dewpoint: 14.0°C (57°F) [RH = 88%]
Pressure (altimeter): 30.13 inches Hg (1020.4 mb)
Winds: calm
Visibility: 10 or more miles (16+ km)
Ceiling: at least 12,000 feet AGL
Clouds: scattered clouds at 5000 feet AGL
Weather: automated observation with no human augmentation;
there may or may not be significant weather present at this time

METAR text: KIDI 190635Z AUTO 00000KT 10SM BKN050 16/15 A3013 RMK A01
Conditions at: KIDI (INDIANA/STEWART , PA, US) observed 0635 UTC 19 July 2018
Temperature: 16.0°C (61°F)
Dewpoint: 15.0°C (59°F) [RH = 94%]
Pressure (altimeter): 30.13 inches Hg (1020.4 mb)
Winds: calm
Visibility: 10 or more miles (16+ km)
Ceiling: 5000 feet AGL
Clouds: broken clouds at 5000 feet AGL
Weather: automated observation with no human augmentation;
there may or may not be significant weather present at this time

METAR text: KIDI 190615Z AUTO 00000KT 10SM OVC055 17/15 A3013 RMK A01
Conditions at: KIDI (INDIANA/STEWART , PA, US) observed 0615 UTC 19 July 2018
Temperature: 17.0°C (63°F)
Dewpoint: 15.0°C (59°F) [RH = 88%]
Pressure (altimeter): 30.13 inches Hg (1020.4 mb)
Winds: calm
Visibility: 10 or more miles (16+ km)
Ceiling: 5500 feet AGL
Clouds: overcast cloud deck at 5500 feet AGL
Weather: automated observation with no human augmentation;
there may or may not be significant weather present at this time

METAR text: KIDI 190555Z AUTO 00000KT 10SM OVC055 17/15 A3014 RMK A01
Conditions at: KIDI (INDIANA/STEWART , PA, US) observed 0555 UTC 19 July 2018
Temperature: 17.0°C (63°F)
Dewpoint: 15.0°C (59°F) [RH = 88%]
Pressure (altimeter): 30.14 inches Hg (1020.7 mb)
Winds: calm
Visibility: 10 or more miles (16+ km)
Ceiling: 5500 feet AGL
Clouds: overcast cloud deck at 5500 feet AGL
Weather: automated observation with no human augmentation;
there may or may not be significant weather present at this time

METAR text: KIDI 190535Z AUTO 00000KT 10SM BKN055 17/15 A3013 RMK A01
Conditions at: KIDI (INDIANA/STEWART , PA, US) observed 0535 UTC 19 July 2018
Temperature: 17.0°C (63°F)
Dewpoint: 15.0°C (59°F) [RH = 88%]
Pressure (altimeter): 30.13 inches Hg (1020.4 mb)
Winds: calm
Visibility: 10 or more miles (16+ km)
Ceiling: 5500 feet AGL
Clouds: broken clouds at 5500 feet AGL
Weather: automated observation with no human augmentation;
there may or may not be significant weather present at this time

METAR text: KIDI 190515Z AUTO 00000KT 10SM BKN055 17/15 A3013 RMK A01
Conditions at: KIDI (INDIANA/STEWART , PA, US) observed 0515 UTC 19 July 2018
Temperature: 17.0°C (63°F)
Dewpoint: 15.0°C (59°F) [RH = 88%]
Pressure (altimeter): 30.13 inches Hg (1020.4 mb)
Winds: calm
Visibility: 10 or more miles (16+ km)
Ceiling: 5500 feet AGL
Clouds: broken clouds at 5500 feet AGL
Weather: automated observation with no human augmentation;
there may or may not be significant weather present at this time

METAR text: KIDI 190455Z AUTO 00000KT 10SM BKN055 17/15 A3013 RMK A01
Conditions at: KIDI (INDIANA/STEWART , PA, US) observed 0455 UTC 19 July 2018
Temperature: 17.0°C (63°F)
Dewpoint: 15.0°C (59°F) [RH = 88%]
Pressure (altimeter): 30.13 inches Hg (1020.4 mb)
Winds: calm
Visibility: 10 or more miles (16+ km)
Ceiling: 5500 feet AGL
Clouds: broken clouds at 5500 feet AGL
Weather: automated observation with no human augmentation;
there may or may not be significant weather present at this time

METAR text: KIDI 190435Z AUTO 00000KT 10SM SCT055 16/15 A3012 RMK A01
Conditions at: KIDI (INDIANA/STEWART , PA, US) observed 0435 UTC 19 July 2018
Temperature: 16.0°C (61°F)
Dewpoint: 15.0°C (59°F) [RH = 94%]
Pressure (altimeter): 30.12 inches Hg (1020.1 mb)
Winds: calm
Visibility: 10 or more miles (16+ km)
Ceiling: at least 12,000 feet AGL
Clouds: scattered clouds at 5500 feet AGL
Weather: automated observation with no human augmentation;
there may or may not be significant weather present at this time

METAR text: KIDI 190415Z AUTO 00000KT 10SM CLR 17/15 A3012 RMK A01
Conditions at: KIDI (INDIANA/STEWART , PA, US) observed 0415 UTC 19 July 2018
Temperature: 17.0°C (63°F)
Dewpoint: 15.0°C (59°F) [RH = 88%]
Pressure (altimeter): 30.12 inches Hg (1020.1 mb)
Winds: calm
Visibility: 10 or more miles (16+ km)
Ceiling: at least 12,000 feet AGL
Clouds: sky clear below 12,000 feet AGL
Weather: automated observation with no human augmentation;
there may or may not be significant weather present at this time

METAR text: KIDI 190355Z AUTO 00000KT 10SM CLR 17/15 A3012 RMK A01
Conditions at: KIDI (INDIANA/STEWART , PA, US) observed 0355 UTC 19 July 2018
Temperature: 17.0°C (63°F)
Dewpoint: 15.0°C (59°F) [RH = 88%]
Pressure (altimeter): 30.12 inches Hg (1020.1 mb)
Winds: calm
Visibility: 10 or more miles (16+ km)
Ceiling: at least 12,000 feet AGL
Clouds: sky clear below 12,000 feet AGL
Weather: automated observation with no human augmentation;
there may or may not be significant weather present at this time

METAR text: KIDI 190335Z AUTO 00000KT 10SM CLR 17/16 A3011 RMK A01
Conditions at: KIDI (INDIANA/STEWART , PA, US) observed 0335 UTC 19 July 2018
Temperature: 17.0°C (63°F)
Dewpoint: 16.0°C (61°F) [RH = 94%]
Pressure (altimeter): 30.11 inches Hg (1019.7 mb)
Winds: calm
Visibility: 10 or more miles (16+ km)
Ceiling: at least 12,000 feet AGL
Clouds: sky clear below 12,000 feet AGL
Weather: automated observation with no human augmentation;
there may or may not be significant weather present at this time

METAR text: KIDI 190315Z AUTO 00000KT 10SM CLR 17/15 A3010 RMK A01
Conditions at: KIDI (INDIANA/STEWART , PA, US) observed 0315 UTC 19 July 2018
Temperature: 17.0°C (63°F)
Dewpoint: 15.0°C (59°F) [RH = 88%]
Pressure (altimeter): 30.10 inches Hg (1019.4 mb)
Winds: calm
Visibility: 10 or more miles (16+ km)
Ceiling: at least 12,000 feet AGL
Clouds: sky clear below 12,000 feet AGL
Weather: automated observation with no human augmentation;
there may or may not be significant weather present at this time

METAR text: KIDI 190255Z AUTO 00000KT 10SM SCT060 18/16 A3010 RMK A01
Conditions at: KIDI (INDIANA/STEWART , PA, US) observed 0255 UTC 19 July 2018
Temperature: 18.0°C (64°F)
Dewpoint: 16.0°C (61°F) [RH = 88%]
Pressure (altimeter): 30.10 inches Hg (1019.4 mb)
Winds: calm
Visibility: 10 or more miles (16+ km)
Ceiling: at least 12,000 feet AGL
Clouds: scattered clouds at 6000 feet AGL
Weather: automated observation with no human augmentation;
there may or may not be significant weather present at this time

METAR text: KIDI 190235Z AUTO 00000KT 10SM BKN060 18/16 A3010 RMK A01
Conditions at: KIDI (INDIANA/STEWART , PA, US) observed 0235 UTC 19 July 2018
Temperature: 18.0°C (64°F)
Dewpoint: 16.0°C (61°F) [RH = 88%]
Pressure (altimeter): 30.10 inches Hg (1019.4 mb)
Winds: calm
Visibility: 10 or more miles (16+ km)
Ceiling: 6000 feet AGL
Clouds: broken clouds at 6000 feet AGL
Weather: automated observation with no human augmentation;
there may or may not be significant weather present at this time

METAR text: KIDI 190215Z AUTO 00000KT 10SM OVC060 19/16 A3010 RMK A01
Conditions at: KIDI (INDIANA/STEWART , PA, US) observed 0215 UTC 19 July 2018
Temperature: 19.0°C (66°F)
Dewpoint: 16.0°C (61°F) [RH = 83%]
Pressure (altimeter): 30.10 inches Hg (1019.4 mb)
Winds: calm
Visibility: 10 or more miles (16+ km)
Ceiling: 6000 feet AGL
Clouds: overcast cloud deck at 6000 feet AGL
Weather: automated observation with no human augmentation;
there may or may not be significant weather present at this time

METAR text: KIDI 190155Z AUTO 00000KT 10SM OVC060 19/16 A3009 RMK A01
Conditions at: KIDI (INDIANA/STEWART , PA, US) observed 0155 UTC 19 July 2018
Temperature: 19.0°C (66°F)
Dewpoint: 16.0°C (61°F) [RH = 83%]
Pressure (altimeter): 30.09 inches Hg (1019.0 mb)
Winds: calm
Visibility: 10 or more miles (16+ km)
Ceiling: 6000 feet AGL
Clouds: overcast cloud deck at 6000 feet AGL
Weather: automated observation with no human augmentation;
there may or may not be significant weather present at this time

METAR text: KIDI 190135Z AUTO 00000KT 10SM OVC060 20/16 A3009 RMK A01
Conditions at: KIDI (INDIANA/STEWART , PA, US) observed 0135 UTC 19 July 2018
Temperature: 20.0°C (68°F)
Dewpoint: 16.0°C (61°F) [RH = 78%]
Pressure (altimeter): 30.09 inches Hg (1019.0 mb)
Winds: calm
Visibility: 10 or more miles (16+ km)
Ceiling: 6000 feet AGL
Clouds: overcast cloud deck at 6000 feet AGL
Weather: automated observation with no human augmentation;
there may or may not be significant weather present at this time

METAR text: KIDI 190115Z AUTO 00000KT 10SM OVC065 20/16 A3008 RMK A01
Conditions at: KIDI (INDIANA/STEWART , PA, US) observed 0115 UTC 19 July 2018
Temperature: 20.0°C (68°F)
Dewpoint: 16.0°C (61°F) [RH = 78%]
Pressure (altimeter): 30.08 inches Hg (1018.7 mb)
Winds: calm
Visibility: 10 or more miles (16+ km)
Ceiling: 6500 feet AGL
Clouds: overcast cloud deck at 6500 feet AGL
Weather: automated observation with no human augmentation;
there may or may not be significant weather present at this time

METAR text: KIDI 190055Z AUTO 00000KT 10SM SCT065 22/14 A3008 RMK A01
Conditions at: KIDI (INDIANA/STEWART , PA, US) observed 0055 UTC 19 July 2018
Temperature: 22.0°C (72°F)
Dewpoint: 14.0°C (57°F) [RH = 60%]
Pressure (altimeter): 30.08 inches Hg (1018.7 mb)
Winds: calm
Visibility: 10 or more miles (16+ km)
Ceiling: at least 12,000 feet AGL
Clouds: scattered clouds at 6500 feet AGL
Weather: automated observation with no human augmentation;
there may or may not be significant weather present at this time

METAR text: KIDI 190035Z AUTO 00000KT 10SM CLR 23/14 A3008 RMK A01
Conditions at: KIDI (INDIANA/STEWART , PA, US) observed 0035 UTC 19 July 2018
Temperature: 23.0°C (73°F)
Dewpoint: 14.0°C (57°F) [RH = 57%]
Pressure (altimeter): 30.08 inches Hg (1018.7 mb)
Winds: calm
Visibility: 10 or more miles (16+ km)
Ceiling: at least 12,000 feet AGL
Clouds: sky clear below 12,000 feet AGL
Weather: automated observation with no human augmentation;
there may or may not be significant weather present at this time

METAR text: KIDI 190015Z AUTO 00000KT 10SM CLR 23/14 A3007 RMK A01
Conditions at: KIDI (INDIANA/STEWART , PA, US) observed 0015 UTC 19 July 2018
Temperature: 23.0°C (73°F)
Dewpoint: 14.0°C (57°F) [RH = 57%]
Pressure (altimeter): 30.07 inches Hg (1018.4 mb)
Winds: calm
Visibility: 10 or more miles (16+ km)
Ceiling: at least 12,000 feet AGL
Clouds: sky clear below 12,000 feet AGL
Weather: automated observation with no human augmentation;
there may or may not be significant weather present at this time

METAR text: KIDI 182355Z AUTO 00000KT 10SM CLR 24/14 A3007 RMK A01
Conditions at: KIDI (INDIANA/STEWART , PA, US) observed 2355 UTC 18 July 2018
Temperature: 24.0°C (75°F)
Dewpoint: 14.0°C (57°F) [RH = 54%]
Pressure (altimeter): 30.07 inches Hg (1018.4 mb)
Winds: calm
Visibility: 10 or more miles (16+ km)
Ceiling: at least 12,000 feet AGL
Clouds: sky clear below 12,000 feet AGL
Weather: automated observation with no human augmentation;
there may or may not be significant weather present at this time

METAR text: KIDI 182335Z AUTO 31003KT 10SM CLR 25/13 A3007 RMK A01
Conditions at: KIDI (INDIANA/STEWART , PA, US) observed 2335 UTC 18 July 2018
Temperature: 25.0°C (77°F)
Dewpoint: 13.0°C (55°F) [RH = 47%]
Pressure (altimeter): 30.07 inches Hg (1018.4 mb)
Winds: from the NW (310 degrees) at 3 MPH (3 knots; 1.6 m/s)
Visibility: 10 or more miles (16+ km)
Ceiling: at least 12,000 feet AGL
Clouds: sky clear below 12,000 feet AGL
Weather: automated observation with no human augmentation;
there may or may not be significant weather present at this time

METAR text: KIDI 182315Z AUTO 32006KT 10SM CLR 25/13 A3007 RMK A01
Conditions at: KIDI (INDIANA/STEWART , PA, US) observed 2315 UTC 18 July 2018
Temperature: 25.0°C (77°F)
Dewpoint: 13.0°C (55°F) [RH = 47%]
Pressure (altimeter): 30.07 inches Hg (1018.4 mb)
Winds: from the NW (320 degrees) at 7 MPH (6 knots; 3.1 m/s)
Visibility: 10 or more miles (16+ km)
Ceiling: at least 12,000 feet AGL
Clouds: sky clear below 12,000 feet AGL
Weather: automated observation with no human augmentation;
there may or may not be significant weather present at this time

METAR text: KIDI 182255Z AUTO 30005KT 10SM CLR 25/13 A3007 RMK A01
Conditions at: KIDI (INDIANA/STEWART , PA, US) observed 2255 UTC 18 July 2018
Temperature: 25.0°C (77°F)
Dewpoint: 13.0°C (55°F) [RH = 47%]
Pressure (altimeter): 30.07 inches Hg (1018.4 mb)
Winds: from the WNW (300 degrees) at 6 MPH (5 knots; 2.6 m/s)
Visibility: 10 or more miles (16+ km)
Ceiling: at least 12,000 feet AGL
Clouds: sky clear below 12,000 feet AGL
Weather: automated observation with no human augmentation;
there may or may not be significant weather present at this time

METAR text: KIDI 182235Z AUTO VRB04KT 10SM CLR 25/13 A3007 RMK A01
Conditions at: KIDI (INDIANA/STEWART , PA, US) observed 2235 UTC 18 July 2018
Temperature: 25.0°C (77°F)
Dewpoint: 13.0°C (55°F) [RH = 47%]
Pressure (altimeter): 30.07 inches Hg (1018.4 mb)
Winds: variable direction winds at 5 MPH (4 knots; 2.1 m/s)
Visibility: 10 or more miles (16+ km)
Ceiling: at least 12,000 feet AGL
Clouds: sky clear below 12,000 feet AGL
Weather: automated observation with no human augmentation;
there may or may not be significant weather present at this time

METAR text: KIDI 182215Z AUTO 32004KT 10SM CLR 25/13 A3007 RMK A01
Conditions at: KIDI (INDIANA/STEWART , PA, US) observed 2215 UTC 18 July 2018
Temperature: 25.0°C (77°F)
Dewpoint: 13.0°C (55°F) [RH = 47%]
Pressure (altimeter): 30.07 inches Hg (1018.4 mb)
Winds: from the NW (320 degrees) at 5 MPH (4 knots; 2.1 m/s)
Visibility: 10 or more miles (16+ km)
Ceiling: at least 12,000 feet AGL
Clouds: sky clear below 12,000 feet AGL
Weather: automated observation with no human augmentation;
there may or may not be significant weather present at this time

METAR text: KIDI 182155Z AUTO 34004KT 10SM CLR 25/12 A3007 RMK A01
Conditions at: KIDI (INDIANA/STEWART , PA, US) observed 2155 UTC 18 July 2018
Temperature: 25.0°C (77°F)
Dewpoint: 12.0°C (54°F) [RH = 44%]
Pressure (altimeter): 30.07 inches Hg (1018.4 mb)
Winds: from the NNW (340 degrees) at 5 MPH (4 knots; 2.1 m/s)
Visibility: 10 or more miles (16+ km)
Ceiling: at least 12,000 feet AGL
Clouds: sky clear below 12,000 feet AGL
Weather: automated observation with no human augmentation;
there may or may not be significant weather present at this time

METAR text: KIDI 182135Z AUTO 31006KT 10SM CLR 26/12 A3007 RMK A01
Conditions at: KIDI (INDIANA/STEWART , PA, US) observed 2135 UTC 18 July 2018
Temperature: 26.0°C (79°F)
Dewpoint: 12.0°C (54°F) [RH = 42%]
Pressure (altimeter): 30.07 inches Hg (1018.4 mb)
Winds: from the NW (310 degrees) at 7 MPH (6 knots; 3.1 m/s)
Visibility: 10 or more miles (16+ km)
Ceiling: at least 12,000 feet AGL
Clouds: sky clear below 12,000 feet AGL
Weather: automated observation with no human augmentation;
there may or may not be significant weather present at this time

METAR text: KIDI 182115Z AUTO 34005G11KT 10SM CLR 25/12 A3007 RMK A01
Conditions at: KIDI (INDIANA/STEWART , PA, US) observed 2115 UTC 18 July 2018
Temperature: 25.0°C (77°F)
Dewpoint: 12.0°C (54°F) [RH = 44%]
Pressure (altimeter): 30.07 inches Hg (1018.4 mb)
Winds: from the NNW (340 degrees) at 6 MPH (5 knots; 2.6 m/s)
gusting to 13 MPH (11 knots; 5.7 m/s)
Visibility: 10 or more miles (16+ km)
Ceiling: at least 12,000 feet AGL
Clouds: sky clear below 12,000 feet AGL
Weather: automated observation with no human augmentation;
there may or may not be significant weather present at this time

METAR text: KIDI 182055Z AUTO VRB04KT 10SM CLR 25/13 A3007 RMK A01
Conditions at: KIDI (INDIANA/STEWART , PA, US) observed 2055 UTC 18 July 2018
Temperature: 25.0°C (77°F)
Dewpoint: 13.0°C (55°F) [RH = 47%]
Pressure (altimeter): 30.07 inches Hg (1018.4 mb)
Winds: variable direction winds at 5 MPH (4 knots; 2.1 m/s)
Visibility: 10 or more miles (16+ km)
Ceiling: at least 12,000 feet AGL
Clouds: sky clear below 12,000 feet AGL
Weather: automated observation with no human augmentation;
there may or may not be significant weather present at this time

METAR text: KIDI 182035Z AUTO 32005KT 10SM FEW055 25/13 A3008 RMK A01
Conditions at: KIDI (INDIANA/STEWART , PA, US) observed 2035 UTC 18 July 2018
Temperature: 25.0°C (77°F)
Dewpoint: 13.0°C (55°F) [RH = 47%]
Pressure (altimeter): 30.08 inches Hg (1018.7 mb)
Winds: from the NW (320 degrees) at 6 MPH (5 knots; 2.6 m/s)
Visibility: 10 or more miles (16+ km)
Ceiling: at least 12,000 feet AGL
Clouds: few clouds at 5500 feet AGL
Weather: automated observation with no human augmentation;
there may or may not be significant weather present at this time

METAR text: KIDI 182015Z AUTO VRB05KT 10SM CLR 25/13 A3008 RMK A01
Conditions at: KIDI (INDIANA/STEWART , PA, US) observed 2015 UTC 18 July 2018
Temperature: 25.0°C (77°F)
Dewpoint: 13.0°C (55°F) [RH = 47%]
Pressure (altimeter): 30.08 inches Hg (1018.7 mb)
Winds: variable direction winds at 6 MPH (5 knots; 2.6 m/s)
Visibility: 10 or more miles (16+ km)
Ceiling: at least 12,000 feet AGL
Clouds: sky clear below 12,000 feet AGL
Weather: automated observation with no human augmentation;
there may or may not be significant weather present at this time

METAR text: KIDI 181955Z AUTO VRB04G10KT 10SM CLR 25/13 A3009 RMK A01
Conditions at: KIDI (INDIANA/STEWART , PA, US) observed 1955 UTC 18 July 2018
Temperature: 25.0°C (77°F)
Dewpoint: 13.0°C (55°F) [RH = 47%]
Pressure (altimeter): 30.09 inches Hg (1019.0 mb)
Winds: variable direction winds at 5 MPH (4 knots; 2.1 m/s)
gusting to 12 MPH (10 knots; 5.2 m/s)
Visibility: 10 or more miles (16+ km)
Ceiling: at least 12,000 feet AGL
Clouds: sky clear below 12,000 feet AGL
Weather: automated observation with no human augmentation;
there may or may not be significant weather present at this time